sensor_id;sensor_type;location;lat;lon;timestamp;P1;durP1;ratioP1;P2;durP2;ratioP2
13475;SDS011;6810;63.824;20.288;2023-05-07T00:00:14;3.77;;;1.93;;
13475;SDS011;6810;63.824;20.288;2023-05-07T00:02:45;3.97;;;1.70;;
13475;SDS011;6810;63.824;20.288;2023-05-07T00:05:12;3.87;;;1.60;;
13475;SDS011;6810;63.824;20.288;2023-05-07T00:07:40;5.43;;;1.83;;
13475;SDS011;6810;63.824;20.288;2023-05-07T00:10:07;2.53;;;1.60;;
13475;SDS011;6810;63.824;20.288;2023-05-07T00:12:35;2.70;;;1.53;;
13475;SDS011;6810;63.824;20.288;2023-05-07T00:15:03;5.93;;;2.00;;
13475;SDS011;6810;63.824;20.288;2023-05-07T00:17:32;2.93;;;1.77;;
13475;SDS011;6810;63.824;20.288;2023-05-07T00:19:59;5.20;;;1.67;;
13475;SDS011;6810;63.824;20.288;2023-05-07T00:22:27;4.97;;;1.90;;
13475;SDS011;6810;63.824;20.288;2023-05-07T00:24:56;2.80;;;1.80;;
13475;SDS011;6810;63.824;20.288;2023-05-07T00:27:24;3.07;;;1.60;;
13475;SDS011;6810;63.824;20.288;2023-05-07T00:29:51;5.10;;;1.43;;
13475;SDS011;6810;63.824;20.288;2023-05-07T00:32:19;3.60;;;1.83;;
13475;SDS011;6810;63.824;20.288;2023-05-07T00:34:46;4.10;;;1.60;;
13475;SDS011;6810;63.824;20.288;2023-05-07T00:37:13;3.33;;;1.60;;
13475;SDS011;6810;63.824;20.288;2023-05-07T00:39:40;3.77;;;1.90;;
13475;SDS011;6810;63.824;20.288;2023-05-07T00:42:08;5.50;;;1.73;;
13475;SDS011;6810;63.824;20.288;2023-05-07T00:44:35;3.43;;;1.80;;
13475;SDS011;6810;63.824;20.288;2023-05-07T00:47:03;3.07;;;1.57;;
13475;SDS011;6810;63.824;20.288;2023-05-07T00:49:38;4.33;;;1.80;;
13475;SDS011;6810;63.824;20.288;2023-05-07T00:52:09;3.77;;;1.67;;
13475;SDS011;6810;63.824;20.288;2023-05-07T00:54:40;6.30;;;1.87;;
13475;SDS011;6810;63.824;20.288;2023-05-07T00:57:11;6.33;;;2.07;;
13475;SDS011;6810;63.824;20.288;2023-05-07T00:59:38;4.73;;;1.80;;
13475;SDS011;6810;63.824;20.288;2023-05-07T01:02:07;4.77;;;1.80;;
13475;SDS011;6810;63.824;20.288;2023-05-07T01:04:35;3.57;;;1.77;;
13475;SDS011;6810;63.824;20.288;2023-05-07T01:07:03;6.77;;;1.90;;
13475;SDS011;6810;63.824;20.288;2023-05-07T01:09:51;6.73;;;1.87;;
13475;SDS011;6810;63.824;20.288;2023-05-07T01:12:39;6.67;;;2.17;;
13475;SDS011;6810;63.824;20.288;2023-05-07T01:15:27;13.27;;;2.20;;
13475;SDS011;6810;63.824;20.288;2023-05-07T01:18:15;3.77;;;1.67;;
13475;SDS011;6810;63.824;20.288;2023-05-07T01:21:04;7.20;;;2.10;;
13475;SDS011;6810;63.824;20.288;2023-05-07T01:23:55;3.80;;;1.57;;
13475;SDS011;6810;63.824;20.288;2023-05-07T01:26:43;3.57;;;1.90;;
13475;SDS011;6810;63.824;20.288;2023-05-07T01:29:33;4.60;;;1.57;;
13475;SDS011;6810;63.824;20.288;2023-05-07T01:32:21;6.10;;;2.17;;
13475;SDS011;6810;63.824;20.288;2023-05-07T01:35:18;3.00;;;1.83;;
13475;SDS011;6810;63.824;20.288;2023-05-07T01:38:06;4.43;;;1.83;;
13475;SDS011;6810;63.824;20.288;2023-05-07T01:40:54;4.47;;;1.60;;
13475;SDS011;6810;63.824;20.288;2023-05-07T01:43:42;3.53;;;1.70;;
13475;SDS011;6810;63.824;20.288;2023-05-07T01:46:30;3.70;;;1.73;;
13475;SDS011;6810;63.824;20.288;2023-05-07T01:49:19;6.53;;;2.20;;
13475;SDS011;6810;63.824;20.288;2023-05-07T01:52:06;2.97;;;1.53;;
13475;SDS011;6810;63.824;20.288;2023-05-07T01:54:53;7.33;;;2.03;;
13475;SDS011;6810;63.824;20.288;2023-05-07T01:57:41;7.47;;;2.00;;
13475;SDS011;6810;63.824;20.288;2023-05-07T02:00:28;3.50;;;2.60;;
13475;SDS011;6810;63.824;20.288;2023-05-07T02:03:15;3.03;;;1.87;;
13475;SDS011;6810;63.824;20.288;2023-05-07T02:06:09;6.47;;;1.87;;
13475;SDS011;6810;63.824;20.288;2023-05-07T02:09:02;3.77;;;1.63;;
13475;SDS011;6810;63.824;20.288;2023-05-07T02:11:50;4.30;;;1.63;;
13475;SDS011;6810;63.824;20.288;2023-05-07T02:14:37;6.23;;;1.90;;
13475;SDS011;6810;63.824;20.288;2023-05-07T02:17:24;4.93;;;1.87;;
13475;SDS011;6810;63.824;20.288;2023-05-07T02:20:12;4.03;;;2.13;;
13475;SDS011;6810;63.824;20.288;2023-05-07T02:23:19;3.63;;;1.93;;
13475;SDS011;6810;63.824;20.288;2023-05-07T02:26:06;3.90;;;1.60;;
13475;SDS011;6810;63.824;20.288;2023-05-07T02:28:53;4.87;;;1.70;;
13475;SDS011;6810;63.824;20.288;2023-05-07T02:31:41;4.67;;;1.80;;
13475;SDS011;6810;63.824;20.288;2023-05-07T02:34:28;7.23;;;2.17;;
13475;SDS011;6810;63.824;20.288;2023-05-07T02:37:15;2.27;;;1.53;;
13475;SDS011;6810;63.824;20.288;2023-05-07T02:40:02;4.10;;;1.70;;
13475;SDS011;6810;63.824;20.288;2023-05-07T02:42:50;4.90;;;2.20;;
13475;SDS011;6810;63.824;20.288;2023-05-07T02:45:41;3.37;;;1.70;;
13475;SDS011;6810;63.824;20.288;2023-05-07T02:48:28;5.33;;;1.67;;
13475;SDS011;6810;63.824;20.288;2023-05-07T02:51:19;3.40;;;1.40;;
13475;SDS011;6810;63.824;20.288;2023-05-07T02:54:12;3.80;;;1.80;;
13475;SDS011;6810;63.824;20.288;2023-05-07T02:56:59;4.83;;;1.90;;
13475;SDS011;6810;63.824;20.288;2023-05-07T02:59:46;5.23;;;1.77;;
13475;SDS011;6810;63.824;20.288;2023-05-07T03:02:33;4.97;;;1.87;;
13475;SDS011;6810;63.824;20.288;2023-05-07T03:05:20;5.70;;;1.70;;
13475;SDS011;6810;63.824;20.288;2023-05-07T03:08:08;3.27;;;1.70;;
13475;SDS011;6810;63.824;20.288;2023-05-07T03:10:56;4.57;;;1.63;;
13475;SDS011;6810;63.824;20.288;2023-05-07T03:13:43;4.10;;;1.60;;
13475;SDS011;6810;63.824;20.288;2023-05-07T03:16:30;9.30;;;1.80;;
13475;SDS011;6810;63.824;20.288;2023-05-07T03:19:18;3.93;;;1.53;;
13475;SDS011;6810;63.824;20.288;2023-05-07T03:22:05;3.80;;;1.90;;
13475;SDS011;6810;63.824;20.288;2023-05-07T03:24:52;2.63;;;1.70;;
13475;SDS011;6810;63.824;20.288;2023-05-07T03:27:40;3.23;;;1.70;;
13475;SDS011;6810;63.824;20.288;2023-05-07T03:30:36;2.73;;;1.60;;
13475;SDS011;6810;63.824;20.288;2023-05-07T03:33:23;3.00;;;1.60;;
13475;SDS011;6810;63.824;20.288;2023-05-07T03:36:10;2.73;;;1.53;;
13475;SDS011;6810;63.824;20.288;2023-05-07T03:38:57;4.53;;;1.80;;
13475;SDS011;6810;63.824;20.288;2023-05-07T03:41:48;5.87;;;2.00;;
13475;SDS011;6810;63.824;20.288;2023-05-07T03:44:36;3.30;;;1.60;;
13475;SDS011;6810;63.824;20.288;2023-05-07T03:47:23;2.67;;;1.70;;
13475;SDS011;6810;63.824;20.288;2023-05-07T03:50:15;3.93;;;1.80;;
13475;SDS011;6810;63.824;20.288;2023-05-07T03:53:03;4.60;;;1.60;;
13475;SDS011;6810;63.824;20.288;2023-05-07T03:55:50;5.20;;;1.60;;
13475;SDS011;6810;63.824;20.288;2023-05-07T03:58:39;4.53;;;2.07;;
13475;SDS011;6810;63.824;20.288;2023-05-07T04:01:27;4.47;;;1.63;;
13475;SDS011;6810;63.824;20.288;2023-05-07T04:04:16;4.60;;;1.90;;
13475;SDS011;6810;63.824;20.288;2023-05-07T04:07:04;6.33;;;2.17;;
13475;SDS011;6810;63.824;20.288;2023-05-07T04:09:51;3.53;;;2.20;;
13475;SDS011;6810;63.824;20.288;2023-05-07T04:12:42;3.77;;;1.90;;
13475;SDS011;6810;63.824;20.288;2023-05-07T04:15:29;3.23;;;1.87;;
13475;SDS011;6810;63.824;20.288;2023-05-07T04:18:18;4.77;;;2.00;;
13475;SDS011;6810;63.824;20.288;2023-05-07T04:21:05;6.73;;;2.60;;
13475;SDS011;6810;63.824;20.288;2023-05-07T04:23:53;6.70;;;2.80;;
13475;SDS011;6810;63.824;20.288;2023-05-07T04:26:40;3.57;;;2.37;;
13475;SDS011;6810;63.824;20.288;2023-05-07T04:29:28;6.40;;;2.37;;
13475;SDS011;6810;63.824;20.288;2023-05-07T04:32:17;5.90;;;2.93;;
13475;SDS011;6810;63.824;20.288;2023-05-07T04:35:05;3.60;;;2.20;;
13475;SDS011;6810;63.824;20.288;2023-05-07T04:37:53;6.93;;;3.07;;
13475;SDS011;6810;63.824;20.288;2023-05-07T04:40:41;7.40;;;2.90;;
13475;SDS011;6810;63.824;20.288;2023-05-07T04:43:29;5.63;;;2.53;;
13475;SDS011;6810;63.824;20.288;2023-05-07T04:46:18;5.10;;;2.30;;
13475;SDS011;6810;63.824;20.288;2023-05-07T04:49:06;4.23;;;2.47;;
13475;SDS011;6810;63.824;20.288;2023-05-07T04:51:54;5.07;;;2.70;;
13475;SDS011;6810;63.824;20.288;2023-05-07T04:54:41;5.70;;;2.63;;
13475;SDS011;6810;63.824;20.288;2023-05-07T04:57:34;5.20;;;2.53;;
13475;SDS011;6810;63.824;20.288;2023-05-07T05:00:22;5.50;;;2.57;;
13475;SDS011;6810;63.824;20.288;2023-05-07T05:03:09;5.10;;;2.70;;
13475;SDS011;6810;63.824;20.288;2023-05-07T05:05:57;6.77;;;2.37;;
13475;SDS011;6810;63.824;20.288;2023-05-07T05:08:44;4.50;;;2.13;;
13475;SDS011;6810;63.824;20.288;2023-05-07T05:11:32;4.23;;;2.00;;
13475;SDS011;6810;63.824;20.288;2023-05-07T05:14:21;3.87;;;2.37;;
13475;SDS011;6810;63.824;20.288;2023-05-07T05:17:08;8.10;;;2.73;;
13475;SDS011;6810;63.824;20.288;2023-05-07T05:19:55;5.60;;;2.30;;
13475;SDS011;6810;63.824;20.288;2023-05-07T05:22:43;5.77;;;2.57;;
13475;SDS011;6810;63.824;20.288;2023-05-07T05:25:30;3.93;;;2.30;;
13475;SDS011;6810;63.824;20.288;2023-05-07T05:28:18;5.50;;;2.40;;
13475;SDS011;6810;63.824;20.288;2023-05-07T05:31:05;5.57;;;2.50;;
13475;SDS011;6810;63.824;20.288;2023-05-07T05:33:52;5.67;;;2.57;;
13475;SDS011;6810;63.824;20.288;2023-05-07T05:36:41;5.03;;;2.40;;
13475;SDS011;6810;63.824;20.288;2023-05-07T05:39:28;5.40;;;2.07;;
13475;SDS011;6810;63.824;20.288;2023-05-07T05:42:15;4.07;;;2.00;;
13475;SDS011;6810;63.824;20.288;2023-05-07T05:45:03;6.07;;;2.00;;
13475;SDS011;6810;63.824;20.288;2023-05-07T05:47:50;3.27;;;2.10;;
13475;SDS011;6810;63.824;20.288;2023-05-07T05:50:38;4.57;;;2.33;;
13475;SDS011;6810;63.824;20.288;2023-05-07T05:53:25;4.87;;;2.30;;
13475;SDS011;6810;63.824;20.288;2023-05-07T05:56:12;7.40;;;2.43;;
13475;SDS011;6810;63.824;20.288;2023-05-07T05:59:00;5.77;;;2.37;;
13475;SDS011;6810;63.824;20.288;2023-05-07T06:01:48;2.67;;;1.63;;
13475;SDS011;6810;63.824;20.288;2023-05-07T06:04:35;5.43;;;1.90;;
13475;SDS011;6810;63.824;20.288;2023-05-07T06:07:22;5.90;;;2.17;;
13475;SDS011;6810;63.824;20.288;2023-05-07T06:10:10;4.87;;;1.83;;
13475;SDS011;6810;63.824;20.288;2023-05-07T06:12:57;4.07;;;1.97;;
13475;SDS011;6810;63.824;20.288;2023-05-07T06:15:44;4.53;;;2.30;;
13475;SDS011;6810;63.824;20.288;2023-05-07T06:18:32;5.80;;;1.70;;
13475;SDS011;6810;63.824;20.288;2023-05-07T06:21:19;3.77;;;2.03;;
13475;SDS011;6810;63.824;20.288;2023-05-07T06:24:06;5.00;;;2.03;;
13475;SDS011;6810;63.824;20.288;2023-05-07T06:26:53;4.60;;;1.80;;
13475;SDS011;6810;63.824;20.288;2023-05-07T06:29:41;4.20;;;1.50;;
13475;SDS011;6810;63.824;20.288;2023-05-07T06:32:31;3.60;;;1.77;;
13475;SDS011;6810;63.824;20.288;2023-05-07T06:35:19;3.33;;;1.67;;
13475;SDS011;6810;63.824;20.288;2023-05-07T06:38:06;3.40;;;1.70;;
13475;SDS011;6810;63.824;20.288;2023-05-07T06:40:53;2.73;;;1.70;;
13475;SDS011;6810;63.824;20.288;2023-05-07T06:43:41;2.93;;;1.90;;
13475;SDS011;6810;63.824;20.288;2023-05-07T06:46:32;2.23;;;1.60;;
13475;SDS011;6810;63.824;20.288;2023-05-07T06:49:19;3.27;;;1.60;;
13475;SDS011;6810;63.824;20.288;2023-05-07T06:52:06;4.33;;;2.13;;
13475;SDS011;6810;63.824;20.288;2023-05-07T06:54:54;3.37;;;1.70;;
13475;SDS011;6810;63.824;20.288;2023-05-07T06:57:42;2.03;;;1.40;;
13475;SDS011;6810;63.824;20.288;2023-05-07T07:00:29;4.60;;;1.63;;
13475;SDS011;6810;63.824;20.288;2023-05-07T07:03:16;2.97;;;1.50;;
13475;SDS011;6810;63.824;20.288;2023-05-07T07:06:04;3.47;;;1.57;;
13475;SDS011;6810;63.824;20.288;2023-05-07T07:08:52;3.93;;;1.57;;
13475;SDS011;6810;63.824;20.288;2023-05-07T07:11:40;4.43;;;1.60;;
13475;SDS011;6810;63.824;20.288;2023-05-07T07:14:28;1.53;;;1.40;;
13475;SDS011;6810;63.824;20.288;2023-05-07T07:17:15;2.40;;;1.30;;
13475;SDS011;6810;63.824;20.288;2023-05-07T07:20:02;2.40;;;1.40;;
13475;SDS011;6810;63.824;20.288;2023-05-07T07:22:50;2.07;;;1.33;;
13475;SDS011;6810;63.824;20.288;2023-05-07T07:25:37;2.97;;;1.57;;
13475;SDS011;6810;63.824;20.288;2023-05-07T07:28:26;3.57;;;1.50;;
13475;SDS011;6810;63.824;20.288;2023-05-07T07:31:17;3.33;;;1.57;;
13475;SDS011;6810;63.824;20.288;2023-05-07T07:34:04;2.53;;;1.60;;
13475;SDS011;6810;63.824;20.288;2023-05-07T07:36:51;2.17;;;1.20;;
13475;SDS011;6810;63.824;20.288;2023-05-07T07:39:39;3.67;;;1.67;;
13475;SDS011;6810;63.824;20.288;2023-05-07T07:42:25;2.90;;;1.40;;
13475;SDS011;6810;63.824;20.288;2023-05-07T07:45:13;4.30;;;1.60;;
13475;SDS011;6810;63.824;20.288;2023-05-07T07:48:00;2.13;;;1.10;;
13475;SDS011;6810;63.824;20.288;2023-05-07T07:50:48;3.20;;;1.43;;
13475;SDS011;6810;63.824;20.288;2023-05-07T07:53:37;2.10;;;1.60;;
13475;SDS011;6810;63.824;20.288;2023-05-07T07:56:25;3.53;;;1.40;;
13475;SDS011;6810;63.824;20.288;2023-05-07T07:59:13;2.47;;;1.33;;
13475;SDS011;6810;63.824;20.288;2023-05-07T08:02:01;2.17;;;1.57;;
13475;SDS011;6810;63.824;20.288;2023-05-07T08:04:49;3.33;;;1.57;;
13475;SDS011;6810;63.824;20.288;2023-05-07T08:07:36;2.83;;;1.50;;
13475;SDS011;6810;63.824;20.288;2023-05-07T08:10:28;5.73;;;1.50;;
13475;SDS011;6810;63.824;20.288;2023-05-07T08:13:21;2.23;;;1.27;;
13475;SDS011;6810;63.824;20.288;2023-05-07T08:16:08;3.63;;;1.67;;
13475;SDS011;6810;63.824;20.288;2023-05-07T08:18:58;2.60;;;1.37;;
13475;SDS011;6810;63.824;20.288;2023-05-07T08:21:45;3.13;;;1.40;;
13475;SDS011;6810;63.824;20.288;2023-05-07T08:24:33;1.83;;;1.30;;
13475;SDS011;6810;63.824;20.288;2023-05-07T08:27:20;2.27;;;1.37;;
13475;SDS011;6810;63.824;20.288;2023-05-07T08:30:08;1.53;;;1.17;;
13475;SDS011;6810;63.824;20.288;2023-05-07T08:32:56;3.73;;;1.37;;
13475;SDS011;6810;63.824;20.288;2023-05-07T08:35:43;5.10;;;1.50;;
13475;SDS011;6810;63.824;20.288;2023-05-07T08:38:30;3.77;;;1.63;;
13475;SDS011;6810;63.824;20.288;2023-05-07T08:41:18;5.33;;;2.87;;
13475;SDS011;6810;63.824;20.288;2023-05-07T08:44:06;4.20;;;2.77;;
13475;SDS011;6810;63.824;20.288;2023-05-07T08:46:59;4.33;;;2.43;;
13475;SDS011;6810;63.824;20.288;2023-05-07T08:49:50;3.47;;;2.40;;
13475;SDS011;6810;63.824;20.288;2023-05-07T08:52:39;4.33;;;2.10;;
13475;SDS011;6810;63.824;20.288;2023-05-07T08:55:27;3.03;;;1.60;;
13475;SDS011;6810;63.824;20.288;2023-05-07T08:58:16;4.87;;;1.60;;
13475;SDS011;6810;63.824;20.288;2023-05-07T09:01:07;3.33;;;1.50;;
13475;SDS011;6810;63.824;20.288;2023-05-07T09:03:56;1.40;;;1.10;;
13475;SDS011;6810;63.824;20.288;2023-05-07T09:06:44;2.07;;;1.40;;
13475;SDS011;6810;63.824;20.288;2023-05-07T09:09:34;1.33;;;1.03;;
13475;SDS011;6810;63.824;20.288;2023-05-07T09:12:22;3.10;;;1.30;;
13475;SDS011;6810;63.824;20.288;2023-05-07T09:15:11;2.73;;;1.27;;
13475;SDS011;6810;63.824;20.288;2023-05-07T09:17:59;4.77;;;1.50;;
13475;SDS011;6810;63.824;20.288;2023-05-07T09:20:50;3.53;;;1.47;;
13475;SDS011;6810;63.824;20.288;2023-05-07T09:23:37;2.20;;;1.27;;
13475;SDS011;6810;63.824;20.288;2023-05-07T09:26:32;3.50;;;1.57;;
13475;SDS011;6810;63.824;20.288;2023-05-07T09:29:19;3.57;;;1.50;;
13475;SDS011;6810;63.824;20.288;2023-05-07T09:32:08;5.37;;;1.60;;
13475;SDS011;6810;63.824;20.288;2023-05-07T09:34:57;3.57;;;1.47;;
13475;SDS011;6810;63.824;20.288;2023-05-07T09:37:50;2.53;;;1.30;;
13475;SDS011;6810;63.824;20.288;2023-05-07T09:40:37;3.53;;;1.30;;
13475;SDS011;6810;63.824;20.288;2023-05-07T09:43:25;2.90;;;1.30;;
13475;SDS011;6810;63.824;20.288;2023-05-07T09:46:14;3.70;;;1.30;;
13475;SDS011;6810;63.824;20.288;2023-05-07T09:49:06;2.20;;;1.20;;
13475;SDS011;6810;63.824;20.288;2023-05-07T09:52:00;2.23;;;1.30;;
13475;SDS011;6810;63.824;20.288;2023-05-07T09:54:51;2.40;;;1.23;;
13475;SDS011;6810;63.824;20.288;2023-05-07T09:57:41;3.00;;;1.20;;
13475;SDS011;6810;63.824;20.288;2023-05-07T10:00:29;3.00;;;1.40;;
13475;SDS011;6810;63.824;20.288;2023-05-07T10:03:18;2.20;;;1.40;;
13475;SDS011;6810;63.824;20.288;2023-05-07T10:06:07;2.93;;;1.30;;
13475;SDS011;6810;63.824;20.288;2023-05-07T10:08:56;3.63;;;1.20;;
13475;SDS011;6810;63.824;20.288;2023-05-07T10:11:43;1.87;;;1.03;;
13475;SDS011;6810;63.824;20.288;2023-05-07T10:14:32;2.30;;;1.33;;
13475;SDS011;6810;63.824;20.288;2023-05-07T10:17:23;3.07;;;1.20;;
13475;SDS011;6810;63.824;20.288;2023-05-07T10:20:11;3.40;;;1.27;;
13475;SDS011;6810;63.824;20.288;2023-05-07T10:22:59;2.20;;;1.33;;
13475;SDS011;6810;63.824;20.288;2023-05-07T10:25:50;1.67;;;1.10;;
13475;SDS011;6810;63.824;20.288;2023-05-07T10:28:39;3.00;;;1.30;;
13475;SDS011;6810;63.824;20.288;2023-05-07T10:34:43;2.10;;;1.20;;
13475;SDS011;6810;63.824;20.288;2023-05-07T10:37:34;3.30;;;1.40;;
13475;SDS011;6810;63.824;20.288;2023-05-07T10:40:24;2.93;;;1.40;;
13475;SDS011;6810;63.824;20.288;2023-05-07T10:43:16;2.67;;;1.30;;
13475;SDS011;6810;63.824;20.288;2023-05-07T10:46:36;1.87;;;1.17;;
13475;SDS011;6810;63.824;20.288;2023-05-07T10:49:19;1.50;;;1.40;;
13475;SDS011;6810;63.824;20.288;2023-05-07T10:52:16;3.10;;;1.27;;
13475;SDS011;6810;63.824;20.288;2023-05-07T11:01:42;2.70;;;1.30;;
13475;SDS011;6810;63.824;20.288;2023-05-07T11:08:17;5.43;;;1.50;;
13475;SDS011;6810;63.824;20.288;2023-05-07T11:11:05;2.20;;;1.20;;
13475;SDS011;6810;63.824;20.288;2023-05-07T11:14:00;1.53;;;1.10;;
13475;SDS011;6810;63.824;20.288;2023-05-07T11:17:00;1.70;;;1.30;;
13475;SDS011;6810;63.824;20.288;2023-05-07T11:19:56;1.33;;;1.23;;
13475;SDS011;6810;63.824;20.288;2023-05-07T11:22:53;1.67;;;1.07;;
13475;SDS011;6810;63.824;20.288;2023-05-07T11:25:58;2.00;;;1.30;;
13475;SDS011;6810;63.824;20.288;2023-05-07T11:28:48;2.50;;;1.40;;
13475;SDS011;6810;63.824;20.288;2023-05-07T11:31:35;2.87;;;1.20;;
13475;SDS011;6810;63.824;20.288;2023-05-07T11:34:28;2.17;;;1.57;;
13475;SDS011;6810;63.824;20.288;2023-05-07T11:37:18;1.57;;;1.47;;
13475;SDS011;6810;63.824;20.288;2023-05-07T11:40:07;1.90;;;1.30;;
13475;SDS011;6810;63.824;20.288;2023-05-07T11:42:55;3.13;;;1.50;;
13475;SDS011;6810;63.824;20.288;2023-05-07T11:45:42;3.23;;;1.77;;
13475;SDS011;6810;63.824;20.288;2023-05-07T11:48:31;2.57;;;1.33;;
13475;SDS011;6810;63.824;20.288;2023-05-07T11:51:25;3.23;;;1.40;;
13475;SDS011;6810;63.824;20.288;2023-05-07T11:54:15;4.27;;;1.47;;
13475;SDS011;6810;63.824;20.288;2023-05-07T11:57:02;1.97;;;1.30;;
13475;SDS011;6810;63.824;20.288;2023-05-07T11:59:54;2.60;;;1.40;;
13475;SDS011;6810;63.824;20.288;2023-05-07T12:02:42;2.30;;;1.40;;
13475;SDS011;6810;63.824;20.288;2023-05-07T12:05:29;3.13;;;1.40;;
13475;SDS011;6810;63.824;20.288;2023-05-07T12:08:17;2.60;;;1.23;;
13475;SDS011;6810;63.824;20.288;2023-05-07T12:11:08;1.63;;;1.20;;
13475;SDS011;6810;63.824;20.288;2023-05-07T12:13:59;2.00;;;1.50;;
13475;SDS011;6810;63.824;20.288;2023-05-07T12:16:46;1.80;;;1.40;;
13475;SDS011;6810;63.824;20.288;2023-05-07T12:19:34;1.60;;;1.30;;
13475;SDS011;6810;63.824;20.288;2023-05-07T12:22:22;1.93;;;1.40;;
13475;SDS011;6810;63.824;20.288;2023-05-07T12:25:09;3.77;;;1.70;;
13475;SDS011;6810;63.824;20.288;2023-05-07T12:27:57;1.47;;;1.30;;
13475;SDS011;6810;63.824;20.288;2023-05-07T12:30:44;3.40;;;1.33;;
13475;SDS011;6810;63.824;20.288;2023-05-07T12:33:33;1.87;;;1.43;;
13475;SDS011;6810;63.824;20.288;2023-05-07T12:36:21;3.97;;;1.70;;
13475;SDS011;6810;63.824;20.288;2023-05-07T12:39:08;3.20;;;1.40;;
13475;SDS011;6810;63.824;20.288;2023-05-07T12:41:56;1.60;;;1.27;;
13475;SDS011;6810;63.824;20.288;2023-05-07T12:44:47;5.07;;;1.40;;
13475;SDS011;6810;63.824;20.288;2023-05-07T12:47:35;1.43;;;1.13;;
13475;SDS011;6810;63.824;20.288;2023-05-07T12:50:22;3.53;;;1.33;;
13475;SDS011;6810;63.824;20.288;2023-05-07T12:53:10;2.50;;;1.20;;
13475;SDS011;6810;63.824;20.288;2023-05-07T12:55:58;1.37;;;1.23;;
13475;SDS011;6810;63.824;20.288;2023-05-07T12:58:45;2.20;;;1.30;;
13475;SDS011;6810;63.824;20.288;2023-05-07T13:01:35;2.33;;;1.43;;
13475;SDS011;6810;63.824;20.288;2023-05-07T13:04:24;1.97;;;1.30;;
13475;SDS011;6810;63.824;20.288;2023-05-07T13:07:11;1.50;;;1.13;;
13475;SDS011;6810;63.824;20.288;2023-05-07T13:09:58;2.57;;;1.33;;
13475;SDS011;6810;63.824;20.288;2023-05-07T13:12:45;2.57;;;1.37;;
13475;SDS011;6810;63.824;20.288;2023-05-07T13:15:32;1.73;;;1.37;;
13475;SDS011;6810;63.824;20.288;2023-05-07T13:18:19;2.07;;;1.30;;
13475;SDS011;6810;63.824;20.288;2023-05-07T13:21:06;2.60;;;1.53;;
13475;SDS011;6810;63.824;20.288;2023-05-07T13:23:53;3.43;;;1.57;;
13475;SDS011;6810;63.824;20.288;2023-05-07T13:26:41;3.30;;;1.57;;
13475;SDS011;6810;63.824;20.288;2023-05-07T13:29:28;1.83;;;1.47;;
13475;SDS011;6810;63.824;20.288;2023-05-07T13:32:15;1.97;;;1.40;;
13475;SDS011;6810;63.824;20.288;2023-05-07T13:35:02;3.73;;;1.30;;
13475;SDS011;6810;63.824;20.288;2023-05-07T13:37:49;2.37;;;1.40;;
13475;SDS011;6810;63.824;20.288;2023-05-07T13:40:36;1.33;;;1.10;;
13475;SDS011;6810;63.824;20.288;2023-05-07T13:43:24;1.90;;;1.40;;
13475;SDS011;6810;63.824;20.288;2023-05-07T13:46:11;1.80;;;1.40;;
13475;SDS011;6810;63.824;20.288;2023-05-07T13:48:58;2.23;;;1.10;;
13475;SDS011;6810;63.824;20.288;2023-05-07T13:51:45;2.23;;;1.30;;
13475;SDS011;6810;63.824;20.288;2023-05-07T13:54:33;2.20;;;1.57;;
13475;SDS011;6810;63.824;20.288;2023-05-07T13:57:20;2.07;;;1.27;;
13475;SDS011;6810;63.824;20.288;2023-05-07T14:00:07;2.07;;;1.30;;
13475;SDS011;6810;63.824;20.288;2023-05-07T14:02:56;1.40;;;1.30;;
13475;SDS011;6810;63.824;20.288;2023-05-07T14:05:43;1.80;;;1.27;;
13475;SDS011;6810;63.824;20.288;2023-05-07T14:08:30;1.23;;;1.10;;
13475;SDS011;6810;63.824;20.288;2023-05-07T14:11:17;1.93;;;1.30;;
13475;SDS011;6810;63.824;20.288;2023-05-07T14:14:05;2.70;;;1.70;;
13475;SDS011;6810;63.824;20.288;2023-05-07T14:16:52;3.20;;;1.43;;
13475;SDS011;6810;63.824;20.288;2023-05-07T14:19:39;2.37;;;1.43;;
13475;SDS011;6810;63.824;20.288;2023-05-07T14:22:26;3.73;;;1.30;;
13475;SDS011;6810;63.824;20.288;2023-05-07T14:25:13;2.00;;;1.50;;
13475;SDS011;6810;63.824;20.288;2023-05-07T14:28:00;4.30;;;1.40;;
13475;SDS011;6810;63.824;20.288;2023-05-07T14:30:47;2.63;;;1.60;;
13475;SDS011;6810;63.824;20.288;2023-05-07T14:33:34;1.87;;;1.40;;
13475;SDS011;6810;63.824;20.288;2023-05-07T14:36:21;3.13;;;1.67;;
13475;SDS011;6810;63.824;20.288;2023-05-07T14:39:09;3.70;;;1.60;;
13475;SDS011;6810;63.824;20.288;2023-05-07T14:41:56;2.60;;;1.57;;
13475;SDS011;6810;63.824;20.288;2023-05-07T14:44:45;1.67;;;1.57;;
13475;SDS011;6810;63.824;20.288;2023-05-07T14:47:32;2.47;;;1.30;;
13475;SDS011;6810;63.824;20.288;2023-05-07T14:50:19;3.13;;;1.60;;
13475;SDS011;6810;63.824;20.288;2023-05-07T14:53:06;2.50;;;1.73;;
13475;SDS011;6810;63.824;20.288;2023-05-07T14:55:34;2.57;;;1.53;;
13475;SDS011;6810;63.824;20.288;2023-05-07T14:58:01;3.37;;;1.73;;
13475;SDS011;6810;63.824;20.288;2023-05-07T15:00:48;2.60;;;1.40;;
13475;SDS011;6810;63.824;20.288;2023-05-07T15:03:35;2.27;;;1.47;;
13475;SDS011;6810;63.824;20.288;2023-05-07T15:06:23;2.77;;;1.50;;
13475;SDS011;6810;63.824;20.288;2023-05-07T15:09:10;2.60;;;1.50;;
13475;SDS011;6810;63.824;20.288;2023-05-07T15:11:57;2.93;;;1.43;;
13475;SDS011;6810;63.824;20.288;2023-05-07T15:14:44;3.27;;;1.67;;
13475;SDS011;6810;63.824;20.288;2023-05-07T15:17:31;3.93;;;1.50;;
13475;SDS011;6810;63.824;20.288;2023-05-07T15:20:18;2.07;;;1.87;;
13475;SDS011;6810;63.824;20.288;2023-05-07T15:23:06;4.63;;;2.00;;
13475;SDS011;6810;63.824;20.288;2023-05-07T15:25:54;4.87;;;1.90;;
13475;SDS011;6810;63.824;20.288;2023-05-07T15:28:41;3.67;;;1.70;;
13475;SDS011;6810;63.824;20.288;2023-05-07T15:31:28;1.93;;;1.50;;
13475;SDS011;6810;63.824;20.288;2023-05-07T15:34:15;5.07;;;1.67;;
13475;SDS011;6810;63.824;20.288;2023-05-07T15:37:02;3.27;;;1.50;;
13475;SDS011;6810;63.824;20.288;2023-05-07T15:39:49;4.50;;;1.60;;
13475;SDS011;6810;63.824;20.288;2023-05-07T15:42:36;3.20;;;1.50;;
13475;SDS011;6810;63.824;20.288;2023-05-07T15:45:23;4.00;;;1.67;;
13475;SDS011;6810;63.824;20.288;2023-05-07T15:48:10;3.67;;;1.87;;
13475;SDS011;6810;63.824;20.288;2023-05-07T15:50:58;3.00;;;1.33;;
13475;SDS011;6810;63.824;20.288;2023-05-07T15:53:45;3.97;;;1.60;;
13475;SDS011;6810;63.824;20.288;2023-05-07T15:56:32;1.90;;;1.53;;
13475;SDS011;6810;63.824;20.288;2023-05-07T15:59:20;3.30;;;1.80;;
13475;SDS011;6810;63.824;20.288;2023-05-07T16:02:07;3.27;;;1.60;;
13475;SDS011;6810;63.824;20.288;2023-05-07T16:04:54;3.47;;;1.70;;
13475;SDS011;6810;63.824;20.288;2023-05-07T16:07:41;3.43;;;1.70;;
13475;SDS011;6810;63.824;20.288;2023-05-07T16:10:29;3.20;;;1.40;;
13475;SDS011;6810;63.824;20.288;2023-05-07T16:13:17;3.33;;;1.60;;
13475;SDS011;6810;63.824;20.288;2023-05-07T16:16:06;3.23;;;1.90;;
13475;SDS011;6810;63.824;20.288;2023-05-07T16:18:54;3.13;;;1.50;;
13475;SDS011;6810;63.824;20.288;2023-05-07T16:21:41;4.60;;;1.73;;
13475;SDS011;6810;63.824;20.288;2023-05-07T16:24:28;2.60;;;1.67;;
13475;SDS011;6810;63.824;20.288;2023-05-07T16:27:16;3.03;;;1.63;;
13475;SDS011;6810;63.824;20.288;2023-05-07T16:30:03;2.73;;;1.70;;
13475;SDS011;6810;63.824;20.288;2023-05-07T16:32:50;1.60;;;1.50;;
13475;SDS011;6810;63.824;20.288;2023-05-07T16:35:37;2.77;;;1.70;;
13475;SDS011;6810;63.824;20.288;2023-05-07T16:38:24;3.80;;;1.90;;
13475;SDS011;6810;63.824;20.288;2023-05-07T16:41:13;3.23;;;1.57;;
13475;SDS011;6810;63.824;20.288;2023-05-07T16:44:00;2.50;;;1.57;;
13475;SDS011;6810;63.824;20.288;2023-05-07T16:46:47;2.53;;;1.40;;
13475;SDS011;6810;63.824;20.288;2023-05-07T16:49:34;4.67;;;1.73;;
13475;SDS011;6810;63.824;20.288;2023-05-07T16:52:21;3.53;;;1.50;;
13475;SDS011;6810;63.824;20.288;2023-05-07T16:55:08;2.33;;;1.53;;
13475;SDS011;6810;63.824;20.288;2023-05-07T16:57:55;2.40;;;1.57;;